sensor_id;sensor_type;location;lat;lon;timestamp;temperature;humidity
71047;SHT31;58703;48.978;8.982;2023-04-24T00:01:19;10.75;85.80
71047;SHT31;58703;48.978;8.982;2023-04-24T00:03:45;10.72;85.70
71047;SHT31;58703;48.978;8.982;2023-04-24T00:06:11;10.64;86.19
71047;SHT31;58703;48.978;8.982;2023-04-24T00:08:37;10.62;86.99
71047;SHT31;58703;48.978;8.982;2023-04-24T00:11:02;10.72;86.91
71047;SHT31;58703;48.978;8.982;2023-04-24T00:13:29;10.58;87.54
71047;SHT31;58703;48.978;8.982;2023-04-24T00:15:55;10.60;87.12
71047;SHT31;58703;48.978;8.982;2023-04-24T00:18:22;10.50;87.55
71047;SHT31;58703;48.978;8.982;2023-04-24T00:20:48;10.62;87.50
71047;SHT31;58703;48.978;8.982;2023-04-24T00:23:15;10.62;87.33
71047;SHT31;58703;48.978;8.982;2023-04-24T00:25:40;10.64;86.94
71047;SHT31;58703;48.978;8.982;2023-04-24T00:28:06;10.60;87.08
71047;SHT31;58703;48.978;8.982;2023-04-24T00:30:31;10.58;87.17
71047;SHT31;58703;48.978;8.982;2023-04-24T00:32:58;10.60;87.02
71047;SHT31;58703;48.978;8.982;2023-04-24T00:35:24;10.55;87.60
71047;SHT31;58703;48.978;8.982;2023-04-24T00:37:50;10.64;86.69
71047;SHT31;58703;48.978;8.982;2023-04-24T00:40:17;10.75;86.18
71047;SHT31;58703;48.978;8.982;2023-04-24T00:42:44;10.69;86.42
71047;SHT31;58703;48.978;8.982;2023-04-24T00:45:10;10.76;85.85
71047;SHT31;58703;48.978;8.982;2023-04-24T00:47:38;10.93;85.12
71047;SHT31;58703;48.978;8.982;2023-04-24T00:50:06;10.96;85.47
71047;SHT31;58703;48.978;8.982;2023-04-24T00:52:33;10.95;85.68
71047;SHT31;58703;48.978;8.982;2023-04-24T00:54:59;10.93;86.10
71047;SHT31;58703;48.978;8.982;2023-04-24T00:57:26;11.05;85.40
71047;SHT31;58703;48.978;8.982;2023-04-24T00:59:52;11.16;84.74
71047;SHT31;58703;48.978;8.982;2023-04-24T01:02:19;11.27;84.34
71047;SHT31;58703;48.978;8.982;2023-04-24T01:04:46;11.43;83.36
71047;SHT31;58703;48.978;8.982;2023-04-24T01:07:11;11.42;83.81
71047;SHT31;58703;48.978;8.982;2023-04-24T01:09:39;11.44;83.81
71047;SHT31;58703;48.978;8.982;2023-04-24T01:12:06;11.50;83.48
71047;SHT31;58703;48.978;8.982;2023-04-24T01:14:33;11.59;83.04
71047;SHT31;58703;48.978;8.982;2023-04-24T01:16:58;11.43;84.14
71047;SHT31;58703;48.978;8.982;2023-04-24T01:19:25;11.44;84.01
71047;SHT31;58703;48.978;8.982;2023-04-24T01:21:53;11.33;84.46
71047;SHT31;58703;48.978;8.982;2023-04-24T01:24:19;11.32;84.28
71047;SHT31;58703;48.978;8.982;2023-04-24T01:26:46;11.19;84.78
71047;SHT31;58703;48.978;8.982;2023-04-24T01:29:12;11.16;84.65
71047;SHT31;58703;48.978;8.982;2023-04-24T01:31:39;11.08;85.10
71047;SHT31;58703;48.978;8.982;2023-04-24T01:34:05;10.98;85.44
71047;SHT31;58703;48.978;8.982;2023-04-24T01:36:32;10.81;86.48
71047;SHT31;58703;48.978;8.982;2023-04-24T01:38:58;10.60;87.40
71047;SHT31;58703;48.978;8.982;2023-04-24T01:41:24;10.37;88.79
71047;SHT31;58703;48.978;8.982;2023-04-24T01:43:50;10.14;89.53
71047;SHT31;58703;48.978;8.982;2023-04-24T01:46:16;10.00;89.95
71047;SHT31;58703;48.978;8.982;2023-04-24T01:48:42;10.00;89.69
71047;SHT31;58703;48.978;8.982;2023-04-24T01:51:08;10.11;89.32
71047;SHT31;58703;48.978;8.982;2023-04-24T01:53:34;9.97;90.23
71047;SHT31;58703;48.978;8.982;2023-04-24T01:56:00;10.04;89.62
71047;SHT31;58703;48.978;8.982;2023-04-24T01:58:26;10.16;88.73
71047;SHT31;58703;48.978;8.982;2023-04-24T02:00:52;10.22;88.69
71047;SHT31;58703;48.978;8.982;2023-04-24T02:03:18;10.22;88.75
71047;SHT31;58703;48.978;8.982;2023-04-24T02:05:44;10.20;89.01
71047;SHT31;58703;48.978;8.982;2023-04-24T02:08:11;10.28;88.36
71047;SHT31;58703;48.978;8.982;2023-04-24T02:10:37;10.34;88.47
71047;SHT31;58703;48.978;8.982;2023-04-24T02:13:04;10.28;89.12
71047;SHT31;58703;48.978;8.982;2023-04-24T02:15:30;10.25;88.92
71047;SHT31;58703;48.978;8.982;2023-04-24T02:17:55;10.28;89.51
71047;SHT31;58703;48.978;8.982;2023-04-24T02:20:21;10.41;88.06
71047;SHT31;58703;48.978;8.982;2023-04-24T02:22:48;10.60;86.79
71047;SHT31;58703;48.978;8.982;2023-04-24T02:25:13;10.64;87.97
71047;SHT31;58703;48.978;8.982;2023-04-24T02:27:39;10.61;88.14
71047;SHT31;58703;48.978;8.982;2023-04-24T02:30:05;10.52;87.99
71047;SHT31;58703;48.978;8.982;2023-04-24T02:32:31;10.57;87.43
71047;SHT31;58703;48.978;8.982;2023-04-24T02:34:56;10.72;86.68
71047;SHT31;58703;48.978;8.982;2023-04-24T02:37:22;10.79;86.61
71047;SHT31;58703;48.978;8.982;2023-04-24T02:39:49;10.82;86.69
71047;SHT31;58703;48.978;8.982;2023-04-24T02:42:14;10.98;86.16
71047;SHT31;58703;48.978;8.982;2023-04-24T02:44:42;11.13;85.56
71047;SHT31;58703;48.978;8.982;2023-04-24T02:47:08;11.06;86.22
71047;SHT31;58703;48.978;8.982;2023-04-24T02:49:35;10.99;86.60
71047;SHT31;58703;48.978;8.982;2023-04-24T02:52:01;11.09;86.11
71047;SHT31;58703;48.978;8.982;2023-04-24T02:54:27;11.11;86.30
71047;SHT31;58703;48.978;8.982;2023-04-24T02:56:54;11.09;86.33
71047;SHT31;58703;48.978;8.982;2023-04-24T02:59:21;11.02;86.86
71047;SHT31;58703;48.978;8.982;2023-04-24T03:01:47;10.86;87.58
71047;SHT31;58703;48.978;8.982;2023-04-24T03:04:13;10.79;88.01
71047;SHT31;58703;48.978;8.982;2023-04-24T03:06:39;10.62;88.71
71047;SHT31;58703;48.978;8.982;2023-04-24T03:09:04;10.44;89.08
71047;SHT31;58703;48.978;8.982;2023-04-24T03:11:31;10.34;90.06
71047;SHT31;58703;48.978;8.982;2023-04-24T03:13:57;10.33;90.35
71047;SHT31;58703;48.978;8.982;2023-04-24T03:16:23;10.31;90.56
71047;SHT31;58703;48.978;8.982;2023-04-24T03:18:49;10.44;90.00
71047;SHT31;58703;48.978;8.982;2023-04-24T03:21:15;10.42;89.78
71047;SHT31;58703;48.978;8.982;2023-04-24T03:23:41;10.44;90.29
71047;SHT31;58703;48.978;8.982;2023-04-24T03:26:06;10.36;90.61
71047;SHT31;58703;48.978;8.982;2023-04-24T03:28:33;10.30;91.12
71047;SHT31;58703;48.978;8.982;2023-04-24T03:30:58;10.31;90.92
71047;SHT31;58703;48.978;8.982;2023-04-24T03:33:25;10.28;91.23
71047;SHT31;58703;48.978;8.982;2023-04-24T03:35:50;10.45;90.15
71047;SHT31;58703;48.978;8.982;2023-04-24T03:38:17;10.42;90.79
71047;SHT31;58703;48.978;8.982;2023-04-24T03:40:44;10.36;91.16
71047;SHT31;58703;48.978;8.982;2023-04-24T03:43:10;10.33;91.49
71047;SHT31;58703;48.978;8.982;2023-04-24T03:45:36;10.24;92.47
71047;SHT31;58703;48.978;8.982;2023-04-24T03:48:03;10.11;94.68
71047;SHT31;58703;48.978;8.982;2023-04-24T03:50:30;10.03;94.68
71047;SHT31;58703;48.978;8.982;2023-04-24T03:52:57;10.07;94.81
71047;SHT31;58703;48.978;8.982;2023-04-24T03:55:24;10.16;93.89
71047;SHT31;58703;48.978;8.982;2023-04-24T03:57:51;9.85;91.70
71047;SHT31;58703;48.978;8.982;2023-04-24T04:00:16;9.48;93.75
71047;SHT31;58703;48.978;8.982;2023-04-24T04:02:43;9.26;93.99
71047;SHT31;58703;48.978;8.982;2023-04-24T04:05:10;9.12;95.25
71047;SHT31;58703;48.978;8.982;2023-04-24T04:07:36;9.01;96.36
71047;SHT31;58703;48.978;8.982;2023-04-24T04:10:02;9.03;95.97
71047;SHT31;58703;48.978;8.982;2023-04-24T04:12:29;9.01;96.41
71047;SHT31;58703;48.978;8.982;2023-04-24T04:14:56;9.05;96.96
71047;SHT31;58703;48.978;8.982;2023-04-24T04:17:23;8.92;97.83
71047;SHT31;58703;48.978;8.982;2023-04-24T04:19:50;8.98;97.03
71047;SHT31;58703;48.978;8.982;2023-04-24T04:22:16;8.98;97.03
71047;SHT31;58703;48.978;8.982;2023-04-24T04:24:42;8.95;97.57
71047;SHT31;58703;48.978;8.982;2023-04-24T04:27:08;9.03;97.55
71047;SHT31;58703;48.978;8.982;2023-04-24T04:29:34;8.97;98.20
71047;SHT31;58703;48.978;8.982;2023-04-24T04:32:02;8.97;97.57
71047;SHT31;58703;48.978;8.982;2023-04-24T04:34:29;9.03;96.94
71047;SHT31;58703;48.978;8.982;2023-04-24T04:36:56;9.03;97.14
71047;SHT31;58703;48.978;8.982;2023-04-24T04:39:26;9.12;95.30
71047;SHT31;58703;48.978;8.982;2023-04-24T04:41:55;9.11;95.86
71047;SHT31;58703;48.978;8.982;2023-04-24T04:44:21;9.12;95.59
71047;SHT31;58703;48.978;8.982;2023-04-24T04:46:48;9.07;96.04
71047;SHT31;58703;48.978;8.982;2023-04-24T04:49:15;9.07;96.32
71047;SHT31;58703;48.978;8.982;2023-04-24T04:51:43;9.01;95.99
71047;SHT31;58703;48.978;8.982;2023-04-24T04:54:10;9.00;96.03
71047;SHT31;58703;48.978;8.982;2023-04-24T04:56:36;8.91;95.72
71047;SHT31;58703;48.978;8.982;2023-04-24T04:59:04;8.92;95.29
71047;SHT31;58703;48.978;8.982;2023-04-24T05:01:33;8.87;94.90
71047;SHT31;58703;48.978;8.982;2023-04-24T05:03:59;8.77;95.40
71047;SHT31;58703;48.978;8.982;2023-04-24T05:06:25;8.95;93.24
71047;SHT31;58703;48.978;8.982;2023-04-24T05:08:52;8.92;93.50
71047;SHT31;58703;48.978;8.982;2023-04-24T05:11:23;8.78;94.17
71047;SHT31;58703;48.978;8.982;2023-04-24T05:13:49;8.73;94.45
71047;SHT31;58703;48.978;8.982;2023-04-24T05:16:16;8.81;93.69
71047;SHT31;58703;48.978;8.982;2023-04-24T05:18:43;8.83;93.94
71047;SHT31;58703;48.978;8.982;2023-04-24T05:21:10;8.83;93.87
71047;SHT31;58703;48.978;8.982;2023-04-24T05:23:35;8.95;93.28
71047;SHT31;58703;48.978;8.982;2023-04-24T05:26:01;9.01;92.50
71047;SHT31;58703;48.978;8.982;2023-04-24T05:28:28;9.11;91.85
71047;SHT31;58703;48.978;8.982;2023-04-24T05:30:55;9.16;92.54
71047;SHT31;58703;48.978;8.982;2023-04-24T05:33:21;9.16;91.57
71047;SHT31;58703;48.978;8.982;2023-04-24T05:35:48;9.24;91.41
71047;SHT31;58703;48.978;8.982;2023-04-24T05:38:15;9.31;91.97
71047;SHT31;58703;48.978;8.982;2023-04-24T05:40:47;9.34;91.99
71047;SHT31;58703;48.978;8.982;2023-04-24T05:43:13;9.24;91.57
71047;SHT31;58703;48.978;8.982;2023-04-24T05:45:38;9.29;90.43
71047;SHT31;58703;48.978;8.982;2023-04-24T05:48:04;9.36;92.05
71047;SHT31;58703;48.978;8.982;2023-04-24T05:50:32;9.42;92.25
71047;SHT31;58703;48.978;8.982;2023-04-24T05:52:58;9.50;92.09
71047;SHT31;58703;48.978;8.982;2023-04-24T05:55:25;9.49;92.35
71047;SHT31;58703;48.978;8.982;2023-04-24T05:57:51;9.45;91.61
71047;SHT31;58703;48.978;8.982;2023-04-24T06:00:18;9.82;91.58
71047;SHT31;58703;48.978;8.982;2023-04-24T06:02:45;9.91;90.11
71047;SHT31;58703;48.978;8.982;2023-04-24T06:05:11;10.06;91.39
71047;SHT31;58703;48.978;8.982;2023-04-24T06:07:38;9.96;90.75
71047;SHT31;58703;48.978;8.982;2023-04-24T06:10:05;10.20;90.97
71047;SHT31;58703;48.978;8.982;2023-04-24T06:12:30;10.41;89.90
71047;SHT31;58703;48.978;8.982;2023-04-24T06:14:56;10.51;89.30
71047;SHT31;58703;48.978;8.982;2023-04-24T06:17:22;10.65;90.03
71047;SHT31;58703;48.978;8.982;2023-04-24T06:19:47;10.82;88.41
71047;SHT31;58703;48.978;8.982;2023-04-24T06:22:14;11.24;88.28
71047;SHT31;58703;48.978;8.982;2023-04-24T06:24:40;11.32;87.67
71047;SHT31;58703;48.978;8.982;2023-04-24T06:27:05;11.36;88.71
71047;SHT31;58703;48.978;8.982;2023-04-24T06:29:32;10.82;87.22
71047;SHT31;58703;48.978;8.982;2023-04-24T06:31:58;10.93;87.97
71047;SHT31;58703;48.978;8.982;2023-04-24T06:34:23;11.13;86.25
71047;SHT31;58703;48.978;8.982;2023-04-24T06:36:49;11.53;85.28
71047;SHT31;58703;48.978;8.982;2023-04-24T06:39:16;11.56;87.18
71047;SHT31;58703;48.978;8.982;2023-04-24T06:41:42;11.26;84.06
71047;SHT31;58703;48.978;8.982;2023-04-24T06:44:08;11.50;83.38
71047;SHT31;58703;48.978;8.982;2023-04-24T06:46:34;11.73;81.79
71047;SHT31;58703;48.978;8.982;2023-04-24T06:49:00;11.42;81.39
71047;SHT31;58703;48.978;8.982;2023-04-24T06:51:26;11.47;81.64
71047;SHT31;58703;48.978;8.982;2023-04-24T06:53:54;11.27;82.15
71047;SHT31;58703;48.978;8.982;2023-04-24T06:56:19;11.32;81.79
71047;SHT31;58703;48.978;8.982;2023-04-24T06:58:46;11.15;80.80
71047;SHT31;58703;48.978;8.982;2023-04-24T07:01:11;11.16;80.31
71047;SHT31;58703;48.978;8.982;2023-04-24T07:03:38;11.33;80.87
71047;SHT31;58703;48.978;8.982;2023-04-24T07:06:05;11.15;80.40
71047;SHT31;58703;48.978;8.982;2023-04-24T07:08:32;11.32;79.64
71047;SHT31;58703;48.978;8.982;2023-04-24T07:10:59;11.50;79.61
71047;SHT31;58703;48.978;8.982;2023-04-24T07:13:26;11.63;79.50
71047;SHT31;58703;48.978;8.982;2023-04-24T07:15:54;11.43;78.11
71047;SHT31;58703;48.978;8.982;2023-04-24T07:18:22;11.42;77.86
71047;SHT31;58703;48.978;8.982;2023-04-24T07:20:49;11.47;79.63
71047;SHT31;58703;48.978;8.982;2023-04-24T07:23:19;11.47;78.94
71047;SHT31;58703;48.978;8.982;2023-04-24T07:25:46;11.36;77.55
71047;SHT31;58703;48.978;8.982;2023-04-24T07:28:13;11.34;78.11
71047;SHT31;58703;48.978;8.982;2023-04-24T07:30:38;11.37;78.09
71047;SHT31;58703;48.978;8.982;2023-04-24T07:33:04;11.47;79.77
71047;SHT31;58703;48.978;8.982;2023-04-24T07:35:33;11.29;76.55
71047;SHT31;58703;48.978;8.982;2023-04-24T07:38:00;11.30;77.81
71047;SHT31;58703;48.978;8.982;2023-04-24T07:40:27;11.40;77.26
71047;SHT31;58703;48.978;8.982;2023-04-24T07:42:56;11.44;77.45
71047;SHT31;58703;48.978;8.982;2023-04-24T07:45:23;11.36;75.50
71047;SHT31;58703;48.978;8.982;2023-04-24T07:47:50;11.02;75.86
71047;SHT31;58703;48.978;8.982;2023-04-24T07:50:17;10.89;75.19
71047;SHT31;58703;48.978;8.982;2023-04-24T07:52:42;10.81;74.88
71047;SHT31;58703;48.978;8.982;2023-04-24T07:55:08;10.67;74.08
71047;SHT31;58703;48.978;8.982;2023-04-24T07:57:36;10.88;76.13
71047;SHT31;58703;48.978;8.982;2023-04-24T08:00:03;11.15;75.61
71047;SHT31;58703;48.978;8.982;2023-04-24T08:02:28;11.15;72.78
71047;SHT31;58703;48.978;8.982;2023-04-24T08:04:54;11.24;73.31
71047;SHT31;58703;48.978;8.982;2023-04-24T08:07:20;11.56;72.84
71047;SHT31;58703;48.978;8.982;2023-04-24T08:09:46;11.77;72.45
71047;SHT31;58703;48.978;8.982;2023-04-24T08:12:12;11.42;69.53
71047;SHT31;58703;48.978;8.982;2023-04-24T08:14:39;11.49;70.62
71047;SHT31;58703;48.978;8.982;2023-04-24T08:17:04;11.95;72.91
71047;SHT31;58703;48.978;8.982;2023-04-24T08:19:30;11.84;68.47
71047;SHT31;58703;48.978;8.982;2023-04-24T08:21:57;11.91;69.60
71047;SHT31;58703;48.978;8.982;2023-04-24T08:24:23;12.05;71.29
71047;SHT31;58703;48.978;8.982;2023-04-24T08:26:49;12.11;70.77
71047;SHT31;58703;48.978;8.982;2023-04-24T08:29:18;11.95;68.53
71047;SHT31;58703;48.978;8.982;2023-04-24T08:31:43;11.62;69.55
71047;SHT31;58703;48.978;8.982;2023-04-24T08:34:09;11.15;68.82
71047;SHT31;58703;48.978;8.982;2023-04-24T08:36:36;11.18;70.21
71047;SHT31;58703;48.978;8.982;2023-04-24T08:39:02;11.34;70.84
71047;SHT31;58703;48.978;8.982;2023-04-24T08:41:27;11.23;71.24
71047;SHT31;58703;48.978;8.982;2023-04-24T08:43:53;11.47;71.89
71047;SHT31;58703;48.978;8.982;2023-04-24T08:46:22;11.33;73.18
71047;SHT31;58703;48.978;8.982;2023-04-24T08:48:50;11.06;74.06
71047;SHT31;58703;48.978;8.982;2023-04-24T08:51:17;10.98;76.37
71047;SHT31;58703;48.978;8.982;2023-04-24T08:53:45;11.44;72.15
71047;SHT31;58703;48.978;8.982;2023-04-24T08:56:11;11.94;71.81
71047;SHT31;58703;48.978;8.982;2023-04-24T08:58:39;12.49;68.78
71047;SHT31;58703;48.978;8.982;2023-04-24T09:01:07;12.53;69.45
71047;SHT31;58703;48.978;8.982;2023-04-24T09:03:34;12.68;70.04
71047;SHT31;58703;48.978;8.982;2023-04-24T09:06:01;12.29;68.21
71047;SHT31;58703;48.978;8.982;2023-04-24T09:08:29;12.63;67.87
71047;SHT31;58703;48.978;8.982;2023-04-24T09:10:56;13.13;67.58
71047;SHT31;58703;48.978;8.982;2023-04-24T09:13:24;12.31;70.17
71047;SHT31;58703;48.978;8.982;2023-04-24T09:15:50;11.60;70.71
71047;SHT31;58703;48.978;8.982;2023-04-24T09:18:18;11.95;69.83
71047;SHT31;58703;48.978;8.982;2023-04-24T09:21:01;12.31;70.23
71047;SHT31;58703;48.978;8.982;2023-04-24T09:23:28;11.95;71.82
71047;SHT31;58703;48.978;8.982;2023-04-24T09:25:56;11.42;72.94
71047;SHT31;58703;48.978;8.982;2023-04-24T09:28:27;11.34;73.99
71047;SHT31;58703;48.978;8.982;2023-04-24T09:31:05;11.06;72.97
71047;SHT31;58703;48.978;8.982;2023-04-24T09:33:32;11.34;72.41
71047;SHT31;58703;48.978;8.982;2023-04-24T09:35:58;10.82;72.92
71047;SHT31;58703;48.978;8.982;2023-04-24T09:38:34;11.37;72.80
71047;SHT31;58703;48.978;8.982;2023-04-24T09:41:07;11.90;72.76
71047;SHT31;58703;48.978;8.982;2023-04-24T09:43:34;12.15;69.92
71047;SHT31;58703;48.978;8.982;2023-04-24T09:46:05;12.36;70.50
71047;SHT31;58703;48.978;8.982;2023-04-24T09:48:35;12.59;70.30
71047;SHT31;58703;48.978;8.982;2023-04-24T09:51:02;12.34;67.76
71047;SHT31;58703;48.978;8.982;2023-04-24T09:53:30;12.60;69.25
71047;SHT31;58703;48.978;8.982;2023-04-24T09:56:02;12.49;66.82
71047;SHT31;58703;48.978;8.982;2023-04-24T09:58:29;12.04;66.09
71047;SHT31;58703;48.978;8.982;2023-04-24T10:00:56;12.04;68.23
71047;SHT31;58703;48.978;8.982;2023-04-24T10:03:30;12.05;68.59
71047;SHT31;58703;48.978;8.982;2023-04-24T10:06:03;11.81;67.21
71047;SHT31;58703;48.978;8.982;2023-04-24T10:08:36;11.59;68.45
71047;SHT31;58703;48.978;8.982;2023-04-24T10:11:04;11.87;67.75
71047;SHT31;58703;48.978;8.982;2023-04-24T10:13:32;12.08;67.62
71047;SHT31;58703;48.978;8.982;2023-04-24T10:16:00;12.80;68.40
71047;SHT31;58703;48.978;8.982;2023-04-24T10:18:27;12.21;66.10
71047;SHT31;58703;48.978;8.982;2023-04-24T10:20:54;11.52;67.32
71047;SHT31;58703;48.978;8.982;2023-04-24T10:23:21;11.24;68.75
71047;SHT31;58703;48.978;8.982;2023-04-24T10:25:50;11.33;69.91
71047;SHT31;58703;48.978;8.982;2023-04-24T10:28:19;11.19;70.10
71047;SHT31;58703;48.978;8.982;2023-04-24T10:30:45;10.95;70.61
71047;SHT31;58703;48.978;8.982;2023-04-24T10:33:13;11.06;71.84
71047;SHT31;58703;48.978;8.982;2023-04-24T10:35:45;10.96;71.52
71047;SHT31;58703;48.978;8.982;2023-04-24T10:38:22;10.83;71.47
71047;SHT31;58703;48.978;8.982;2023-04-24T10:40:51;11.26;70.30
71047;SHT31;58703;48.978;8.982;2023-04-24T10:43:18;11.83;70.48
71047;SHT31;58703;48.978;8.982;2023-04-24T10:46:02;11.75;68.32
71047;SHT31;58703;48.978;8.982;2023-04-24T10:48:30;11.80;69.92
71047;SHT31;58703;48.978;8.982;2023-04-24T10:50:57;11.77;68.83
71047;SHT31;58703;48.978;8.982;2023-04-24T10:53:27;12.02;68.64
71047;SHT31;58703;48.978;8.982;2023-04-24T10:56:04;11.44;68.94
71047;SHT31;58703;48.978;8.982;2023-04-24T11:01:07;12.97;68.91
71047;SHT31;58703;48.978;8.982;2023-04-24T11:03:33;12.38;67.81
71047;SHT31;58703;48.978;8.982;2023-04-24T11:06:07;12.01;68.58
71047;SHT31;58703;48.978;8.982;2023-04-24T11:08:45;12.11;68.07
71047;SHT31;58703;48.978;8.982;2023-04-24T11:11:16;11.97;68.69
71047;SHT31;58703;48.978;8.982;2023-04-24T11:19:33;12.65;68.31
71047;SHT31;58703;48.978;8.982;2023-04-24T11:22:05;12.95;65.35
71047;SHT31;58703;48.978;8.982;2023-04-24T11:24:49;12.35;67.24
71047;SHT31;58703;48.978;8.982;2023-04-24T11:27:19;12.90;66.05
71047;SHT31;58703;48.978;8.982;2023-04-24T11:32:18;12.18;66.93
71047;SHT31;58703;48.978;8.982;2023-04-24T11:34:54;12.63;66.04
71047;SHT31;58703;48.978;8.982;2023-04-24T11:37:26;13.02;65.48
71047;SHT31;58703;48.978;8.982;2023-04-24T11:39:54;12.42;66.52
71047;SHT31;58703;48.978;8.982;2023-04-24T11:42:21;12.01;66.79
71047;SHT31;58703;48.978;8.982;2023-04-24T11:44:49;12.28;68.71
71047;SHT31;58703;48.978;8.982;2023-04-24T11:47:16;12.35;68.18
71047;SHT31;58703;48.978;8.982;2023-04-24T11:49:42;12.38;65.80
71047;SHT31;58703;48.978;8.982;2023-04-24T11:52:09;11.98;68.21
71047;SHT31;58703;48.978;8.982;2023-04-24T11:54:37;11.63;67.98
71047;SHT31;58703;48.978;8.982;2023-04-24T11:57:06;11.81;69.57
71047;SHT31;58703;48.978;8.982;2023-04-24T11:59:36;12.01;68.83
71047;SHT31;58703;48.978;8.982;2023-04-24T12:02:03;12.53;67.96
71047;SHT31;58703;48.978;8.982;2023-04-24T12:04:39;12.45;68.03
71047;SHT31;58703;48.978;8.982;2023-04-24T12:07:05;12.41;69.36
71047;SHT31;58703;48.978;8.982;2023-04-24T12:09:58;12.15;69.16
71047;SHT31;58703;48.978;8.982;2023-04-24T12:12:27;11.88;68.84
71047;SHT31;58703;48.978;8.982;2023-04-24T12:14:57;11.27;73.35
71047;SHT31;58703;48.978;8.982;2023-04-24T12:17:33;10.33;77.52
71047;SHT31;58703;48.978;8.982;2023-04-24T12:20:04;9.40;80.99
71047;SHT31;58703;48.978;8.982;2023-04-24T12:22:50;9.29;85.66
71047;SHT31;58703;48.978;8.982;2023-04-24T12:25:18;9.38;86.22
71047;SHT31;58703;48.978;8.982;2023-04-24T12:27:46;9.45;87.95
71047;SHT31;58703;48.978;8.982;2023-04-24T12:30:15;9.35;88.27
71047;SHT31;58703;48.978;8.982;2023-04-24T12:32:42;9.85;90.67
71047;SHT31;58703;48.978;8.982;2023-04-24T12:35:08;9.89;88.56
71047;SHT31;58703;48.978;8.982;2023-04-24T12:37:35;10.38;89.81
71047;SHT31;58703;48.978;8.982;2023-04-24T12:40:12;11.40;89.59
71047;SHT31;58703;48.978;8.982;2023-04-24T12:42:43;11.33;84.96
71047;SHT31;58703;48.978;8.982;2023-04-24T12:45:10;11.52;82.74
71047;SHT31;58703;48.978;8.982;2023-04-24T12:47:40;11.77;81.66
71047;SHT31;58703;48.978;8.982;2023-04-24T12:50:09;12.76;81.07
71047;SHT31;58703;48.978;8.982;2023-04-24T12:52:36;12.25;77.54
71047;SHT31;58703;48.978;8.982;2023-04-24T12:55:03;11.99;76.53
71047;SHT31;58703;48.978;8.982;2023-04-24T12:57:31;13.04;77.43
71047;SHT31;58703;48.978;8.982;2023-04-24T12:59:58;12.73;74.47
71047;SHT31;58703;48.978;8.982;2023-04-24T13:02:27;12.53;73.73
71047;SHT31;58703;48.978;8.982;2023-04-24T13:04:53;12.76;73.30
71047;SHT31;58703;48.978;8.982;2023-04-24T13:07:20;12.31;71.00
71047;SHT31;58703;48.978;8.982;2023-04-24T13:09:48;12.59;68.87
71047;SHT31;58703;48.978;8.982;2023-04-24T13:12:14;12.97;67.06
71047;SHT31;58703;48.978;8.982;2023-04-24T13:14:40;13.23;70.01
71047;SHT31;58703;48.978;8.982;2023-04-24T13:17:07;13.41;66.88
71047;SHT31;58703;48.978;8.982;2023-04-24T13:19:39;14.28;65.88
71047;SHT31;58703;48.978;8.982;2023-04-24T13:22:05;13.33;66.03
71047;SHT31;58703;48.978;8.982;2023-04-24T13:24:32;13.57;67.63
71047;SHT31;58703;48.978;8.982;2023-04-24T13:26:58;13.46;67.99
71047;SHT31;58703;48.978;8.982;2023-04-24T13:29:25;13.33;65.65
71047;SHT31;58703;48.978;8.982;2023-04-24T13:31:54;13.71;63.96
71047;SHT31;58703;48.978;8.982;2023-04-24T13:34:21;13.83;64.86
71047;SHT31;58703;48.978;8.982;2023-04-24T13:36:47;12.70;66.15
71047;SHT31;58703;48.978;8.982;2023-04-24T13:39:12;13.11;65.38
71047;SHT31;58703;48.978;8.982;2023-04-24T13:41:39;13.78;65.51
71047;SHT31;58703;48.978;8.982;2023-04-24T13:44:05;13.19;62.68
71047;SHT31;58703;48.978;8.982;2023-04-24T13:46:31;12.66;64.90
71047;SHT31;58703;48.978;8.982;2023-04-24T13:48:59;13.86;61.75
71047;SHT31;58703;48.978;8.982;2023-04-24T13:51:26;12.79;64.31
71047;SHT31;58703;48.978;8.982;2023-04-24T13:53:54;12.90;65.93
71047;SHT31;58703;48.978;8.982;2023-04-24T13:56:21;12.18;68.03
71047;SHT31;58703;48.978;8.982;2023-04-24T13:58:48;12.28;67.71
71047;SHT31;58703;48.978;8.982;2023-04-24T14:01:14;11.74;68.27
71047;SHT31;58703;48.978;8.982;2023-04-24T14:03:42;11.64;71.58
71047;SHT31;58703;48.978;8.982;2023-04-24T14:06:11;10.78;79.34
71047;SHT31;58703;48.978;8.982;2023-04-24T14:08:36;10.96;80.20
71047;SHT31;58703;48.978;8.982;2023-04-24T14:11:02;11.33;79.22
71047;SHT31;58703;48.978;8.982;2023-04-24T14:13:28;11.97;79.90
71047;SHT31;58703;48.978;8.982;2023-04-24T14:15:54;12.73;75.05
71047;SHT31;58703;48.978;8.982;2023-04-24T14:18:20;14.01;69.33
71047;SHT31;58703;48.978;8.982;2023-04-24T14:20:47;13.47;71.33
71047;SHT31;58703;48.978;8.982;2023-04-24T14:23:12;14.09;67.59
71047;SHT31;58703;48.978;8.982;2023-04-24T14:25:38;13.26;66.69
71047;SHT31;58703;48.978;8.982;2023-04-24T14:28:05;13.19;68.28
71047;SHT31;58703;48.978;8.982;2023-04-24T14:30:32;13.00;66.02
71047;SHT31;58703;48.978;8.982;2023-04-24T14:32:59;13.68;65.28
71047;SHT31;58703;48.978;8.982;2023-04-24T14:35:25;12.87;65.50
71047;SHT31;58703;48.978;8.982;2023-04-24T14:37:52;12.56;67.38
71047;SHT31;58703;48.978;8.982;2023-04-24T14:40:19;12.59;68.06
71047;SHT31;58703;48.978;8.982;2023-04-24T14:42:46;12.55;67.11
71047;SHT31;58703;48.978;8.982;2023-04-24T14:45:13;12.66;67.87
71047;SHT31;58703;48.978;8.982;2023-04-24T14:47:40;12.29;66.41
71047;SHT31;58703;48.978;8.982;2023-04-24T14:50:09;12.59;66.87
71047;SHT31;58703;48.978;8.982;2023-04-24T14:52:38;12.70;65.88
71047;SHT31;58703;48.978;8.982;2023-04-24T14:55:05;12.60;66.01
71047;SHT31;58703;48.978;8.982;2023-04-24T14:57:34;12.24;67.13
71047;SHT31;58703;48.978;8.982;2023-04-24T15:00:06;12.02;67.67
71047;SHT31;58703;48.978;8.982;2023-04-24T15:02:36;12.01;66.97
71047;SHT31;58703;48.978;8.982;2023-04-24T15:05:06;11.84;66.66
71047;SHT31;58703;48.978;8.982;2023-04-24T15:07:34;11.98;67.89
71047;SHT31;58703;48.978;8.982;2023-04-24T15:10:03;11.97;66.32
71047;SHT31;58703;48.978;8.982;2023-04-24T15:12:28;12.07;67.06
71047;SHT31;58703;48.978;8.982;2023-04-24T15:14:57;12.80;65.71
71047;SHT31;58703;48.978;8.982;2023-04-24T15:17:24;13.89;64.59
71047;SHT31;58703;48.978;8.982;2023-04-24T15:19:51;13.86;65.19
71047;SHT31;58703;48.978;8.982;2023-04-24T15:22:18;15.46;60.12
71047;SHT31;58703;48.978;8.982;2023-04-24T15:24:45;14.81;61.46
71047;SHT31;58703;48.978;8.982;2023-04-24T15:27:12;14.39;62.51
71047;SHT31;58703;48.978;8.982;2023-04-24T15:29:39;14.44;61.61
71047;SHT31;58703;48.978;8.982;2023-04-24T15:32:05;14.33;62.27
71047;SHT31;58703;48.978;8.982;2023-04-24T15:34:32;12.93;64.35
71047;SHT31;58703;48.978;8.982;2023-04-24T15:36:59;12.08;66.36
71047;SHT31;58703;48.978;8.982;2023-04-24T15:39:26;12.99;65.35
71047;SHT31;58703;48.978;8.982;2023-04-24T15:41:52;12.52;65.75
71047;SHT31;58703;48.978;8.982;2023-04-24T15:44:23;12.21;66.42